createdAt,value
2022-09-16T00:00:35.014Z,3.50
2022-09-16T00:01:34.864Z,5.30
2022-09-16T00:02:38.077Z,3.80
2022-09-16T00:03:36.836Z,5.00
2022-09-16T00:04:34.841Z,4.30
2022-09-16T00:05:34.823Z,4.50
2022-09-16T00:06:34.816Z,4.90
2022-09-16T00:07:34.817Z,4.00
2022-09-16T00:08:34.808Z,5.80
2022-09-16T00:09:34.795Z,3.50
2022-09-16T00:10:34.791Z,3.60
2022-09-16T00:11:34.804Z,5.50
2022-09-16T00:12:34.802Z,4.50
2022-09-16T00:13:34.776Z,4.20
2022-09-16T00:14:34.761Z,4.90
2022-09-16T00:15:34.757Z,4.40
2022-09-16T00:16:34.804Z,3.80
2022-09-16T00:17:34.767Z,5.60
2022-09-16T00:18:34.753Z,5.90
2022-09-16T00:19:34.732Z,4.30
2022-09-16T00:20:34.752Z,4.60
2022-09-16T00:21:34.715Z,6.90
2022-09-16T00:22:34.717Z,5.60
2022-09-16T00:23:34.716Z,5.80
2022-09-16T00:24:34.740Z,5.00
2022-09-16T00:25:34.687Z,4.60
2022-09-16T00:26:34.716Z,4.90
2022-09-16T00:27:34.714Z,4.10
2022-09-16T00:28:34.695Z,5.20
2022-09-16T00:29:34.672Z,3.60
2022-09-16T00:30:34.681Z,8.00
2022-09-16T00:31:34.749Z,4.40
2022-09-16T00:32:34.658Z,4.50
2022-09-16T00:33:34.659Z,7.00
2022-09-16T00:34:34.632Z,4.10
2022-09-16T00:35:34.627Z,5.70
2022-09-16T00:36:34.648Z,4.80
2022-09-16T00:37:34.625Z,4.80
2022-09-16T00:38:34.634Z,2.60
2022-09-16T00:39:34.606Z,4.10
2022-09-16T00:40:34.591Z,4.50
2022-09-16T00:41:34.589Z,3.40
2022-09-16T00:42:34.582Z,5.20
2022-09-16T00:43:34.590Z,4.10
2022-09-16T00:44:34.581Z,5.70
2022-09-16T00:45:34.558Z,5.70
2022-09-16T00:46:34.615Z,5.80
2022-09-16T00:47:34.543Z,5.40
2022-09-16T00:48:34.534Z,6.10
2022-09-16T00:49:34.563Z,7.00
2022-09-16T00:50:34.519Z,4.50
2022-09-16T00:51:34.538Z,4.30
2022-09-16T00:52:34.510Z,5.20
2022-09-16T00:53:34.526Z,4.40
2022-09-16T00:54:34.512Z,5.10
2022-09-16T00:55:34.501Z,3.40
2022-09-16T00:56:34.498Z,6.20
2022-09-16T00:57:34.474Z,3.60
2022-09-16T00:58:34.485Z,3.70
2022-09-16T00:59:34.458Z,4.40
2022-09-16T01:00:34.525Z,5.20
2022-09-16T01:01:34.463Z,2.80
2022-09-16T01:02:34.466Z,4.40
2022-09-16T01:03:34.433Z,5.30
2022-09-16T01:04:34.441Z,3.90
2022-09-16T01:05:35.122Z,3.10
2022-09-16T01:06:34.422Z,2.40
2022-09-16T01:07:34.406Z,4.70
2022-09-16T01:08:34.402Z,3.80
2022-09-16T01:09:34.390Z,4.50
2022-09-16T01:10:34.401Z,4.80
2022-09-16T01:11:34.374Z,5.50
2022-09-16T01:12:34.362Z,5.00
2022-09-16T01:13:34.350Z,6.20
2022-09-16T01:14:34.345Z,3.50
2022-09-16T01:15:34.338Z,3.90
2022-09-16T01:16:34.458Z,3.30
2022-09-16T01:17:34.327Z,3.60
2022-09-16T01:18:34.319Z,4.60
2022-09-16T01:19:34.331Z,6.90
2022-09-16T01:20:34.310Z,5.40
2022-09-16T01:21:34.334Z,7.30
2022-09-16T01:22:34.286Z,4.00
2022-09-16T01:23:34.298Z,4.50
2022-09-16T01:24:34.282Z,4.90
2022-09-16T01:25:34.282Z,4.90
2022-09-16T01:26:34.278Z,5.60
2022-09-16T01:27:34.285Z,4.00
2022-09-16T01:28:34.265Z,7.50
2022-09-16T01:29:34.269Z,4.00
2022-09-16T01:30:34.304Z,4.30
2022-09-16T01:31:34.349Z,4.70
2022-09-16T01:32:34.241Z,4.30
2022-09-16T01:33:34.273Z,3.20
2022-09-16T01:34:34.220Z,3.60
2022-09-16T01:35:34.198Z,5.50
2022-09-16T01:36:35.214Z,5.60
2022-09-16T01:37:34.212Z,3.30
2022-09-16T01:38:34.185Z,8.00
2022-09-16T01:39:34.218Z,4.00
2022-09-16T01:40:34.242Z,4.00
2022-09-16T01:41:34.186Z,5.60
2022-09-16T01:42:34.177Z,4.00
2022-09-16T01:43:34.168Z,5.30
2022-09-16T01:44:34.164Z,4.10
2022-09-16T01:45:34.132Z,3.70
2022-09-16T01:46:34.200Z,5.30
2022-09-16T01:47:34.148Z,5.20
2022-09-16T01:48:34.129Z,4.30
2022-09-16T01:49:34.108Z,3.80
2022-09-16T01:50:34.170Z,3.70
2022-09-16T01:51:34.095Z,5.30
2022-09-16T01:52:34.100Z,5.00
2022-09-16T01:53:34.085Z,5.30
2022-09-16T01:54:34.085Z,5.00
2022-09-16T01:55:34.101Z,8.10
2022-09-16T01:56:34.080Z,3.60
2022-09-16T01:57:34.072Z,7.00
2022-09-16T01:58:34.788Z,6.20
2022-09-16T01:59:34.048Z,5.10
2022-09-16T02:00:34.081Z,8.80
2022-09-16T02:01:34.116Z,6.00
2022-09-16T02:02:34.091Z,5.10
2022-09-16T02:03:34.744Z,5.80
2022-09-16T02:04:34.013Z,6.30
2022-09-16T02:05:34.027Z,6.60
2022-09-16T02:06:33.993Z,4.40
2022-09-16T02:07:33.972Z,8.40
2022-09-16T02:08:35.000Z,5.20
2022-09-16T02:09:33.992Z,4.90
2022-09-16T02:10:33.976Z,5.20
2022-09-16T02:11:33.967Z,5.70
2022-09-16T02:12:33.964Z,7.70
2022-09-16T02:13:33.948Z,7.60
2022-09-16T02:14:33.943Z,5.90
2022-09-16T02:15:33.932Z,4.60
2022-09-16T02:16:33.915Z,7.00
2022-09-16T02:17:33.924Z,5.60
2022-09-16T02:18:33.900Z,9.60
2022-09-16T02:19:33.903Z,5.90
2022-09-16T02:20:33.887Z,5.60
2022-09-16T02:21:33.891Z,7.50
2022-09-16T02:22:33.879Z,7.00
2022-09-16T02:23:33.876Z,6.00
2022-09-16T02:24:33.852Z,6.70
2022-09-16T02:25:33.872Z,5.50
2022-09-16T02:26:33.904Z,6.40
2022-09-16T02:27:33.860Z,4.50
2022-09-16T02:28:33.835Z,8.80
2022-09-16T02:29:33.819Z,5.80
2022-09-16T02:30:33.821Z,5.10
2022-09-16T02:31:33.918Z,4.90
2022-09-16T02:32:33.822Z,7.10
2022-09-16T02:33:33.789Z,6.60
2022-09-16T02:34:33.844Z,5.00
2022-09-16T02:35:33.782Z,5.90
2022-09-16T02:36:33.764Z,7.90
2022-09-16T02:37:33.824Z,7.30
2022-09-16T02:38:33.778Z,6.60
2022-09-16T02:39:33.790Z,6.60
2022-09-16T02:40:33.864Z,7.00
2022-09-16T02:41:33.732Z,4.60
2022-09-16T02:42:33.741Z,6.70
2022-09-16T02:43:33.766Z,4.90
2022-09-16T02:44:34.671Z,5.50
2022-09-16T02:45:33.775Z,6.70
2022-09-16T02:46:33.835Z,5.40
2022-09-16T02:47:33.692Z,6.50
2022-09-16T02:48:33.716Z,7.70
2022-09-16T02:49:33.679Z,5.30
2022-09-16T02:50:33.692Z,7.00
2022-09-16T02:51:33.672Z,8.10
2022-09-16T02:52:33.698Z,5.80
2022-09-16T02:53:33.655Z,8.20
2022-09-16T02:54:33.664Z,6.50
2022-09-16T02:55:33.648Z,8.00
2022-09-16T02:56:33.667Z,8.00
2022-09-16T02:57:33.633Z,6.40
2022-09-16T02:58:33.615Z,7.60
2022-09-16T02:59:33.624Z,7.20
2022-09-16T03:00:33.610Z,6.50
2022-09-16T03:01:33.693Z,7.70
2022-09-16T03:02:33.662Z,8.20
2022-09-16T03:03:33.606Z,8.00
2022-09-16T03:04:33.575Z,6.80
2022-09-16T03:05:33.567Z,7.00
2022-09-16T03:06:33.563Z,7.90
2022-09-16T03:07:33.587Z,8.00
2022-09-16T03:08:33.583Z,7.90
2022-09-16T03:09:33.539Z,7.50
2022-09-16T03:10:33.618Z,4.90
2022-09-16T03:11:33.598Z,5.50
2022-09-16T03:12:33.535Z,9.10
2022-09-16T03:13:33.510Z,10.00
2022-09-16T03:14:33.571Z,9.80
2022-09-16T03:15:33.703Z,8.60
2022-09-16T03:16:33.499Z,11.60
2022-09-16T03:17:33.491Z,10.50
2022-09-16T03:18:33.498Z,11.10
2022-09-16T03:19:33.490Z,8.50
2022-09-16T03:20:33.460Z,7.40
2022-09-16T03:21:33.461Z,8.10
2022-09-16T03:22:33.463Z,6.00
2022-09-16T03:23:33.495Z,10.70
2022-09-16T03:24:33.447Z,6.70
2022-09-16T03:25:33.443Z,8.60
2022-09-16T03:26:33.422Z,11.40
2022-09-16T03:27:33.415Z,9.10
2022-09-16T03:28:33.407Z,8.70
2022-09-16T03:29:33.435Z,6.80
2022-09-16T03:30:33.395Z,8.40
2022-09-16T03:31:33.428Z,6.50
2022-09-16T03:32:33.395Z,7.00
2022-09-16T03:33:33.383Z,7.60
2022-09-16T03:34:33.409Z,5.90
2022-09-16T03:35:33.362Z,6.40
2022-09-16T03:36:33.347Z,7.80
2022-09-16T03:37:33.378Z,6.60
2022-09-16T03:38:33.328Z,9.80
2022-09-16T03:39:33.376Z,9.50
2022-09-16T03:40:33.391Z,8.00
2022-09-16T03:41:33.325Z,6.50
2022-09-16T03:42:33.320Z,8.60
2022-09-16T03:43:33.316Z,6.80
2022-09-16T03:44:34.123Z,7.90
2022-09-16T03:45:33.352Z,7.10
2022-09-16T03:46:33.324Z,8.40
2022-09-16T03:47:33.275Z,5.40
2022-09-16T03:48:33.275Z,7.00
2022-09-16T03:49:33.251Z,8.20
2022-09-16T03:50:33.287Z,7.90
2022-09-16T03:51:33.251Z,9.20
2022-09-16T03:52:33.243Z,8.90
2022-09-16T03:53:33.239Z,14.20
2022-09-16T03:54:33.748Z,13.70
2022-09-16T03:55:33.251Z,13.20
2022-09-16T03:56:33.213Z,15.40
2022-09-16T03:57:33.320Z,14.30
2022-09-16T03:58:33.195Z,9.40
2022-09-16T03:59:35.170Z,10.10
2022-09-16T04:00:34.466Z,11.40
2022-09-16T04:01:33.627Z,7.80
2022-09-16T04:02:33.614Z,6.90
2022-09-16T04:03:34.445Z,8.40
2022-09-16T04:04:33.747Z,7.80
2022-09-16T04:05:36.354Z,9.70
2022-09-16T04:06:33.514Z,7.60
2022-09-16T04:07:34.252Z,13.00
2022-09-16T04:08:34.253Z,11.70
2022-09-16T04:09:34.719Z,8.60
2022-09-16T04:11:55.303Z,9.40
2022-09-16T04:12:33.468Z,10.80
2022-09-16T04:13:33.458Z,6.80
2022-09-16T04:14:33.486Z,4.70
2022-09-16T04:15:35.153Z,8.60
2022-09-16T04:16:34.621Z,8.40
2022-09-16T04:17:34.554Z,8.00
2022-09-16T04:18:34.463Z,7.70
2022-09-16T04:19:34.811Z,8.00
2022-09-16T04:20:33.068Z,7.60
2022-09-16T04:21:33.062Z,9.30
2022-09-16T04:22:33.055Z,8.90
2022-09-16T04:23:33.030Z,8.20
2022-09-16T04:24:33.046Z,8.40
2022-09-16T04:25:33.026Z,7.80
2022-09-16T04:26:33.033Z,8.70
2022-09-16T04:27:33.004Z,8.00
2022-09-16T04:28:32.990Z,10.70
2022-09-16T04:29:32.994Z,8.70
2022-09-16T04:30:32.979Z,9.20
2022-09-16T04:31:32.997Z,10.90
2022-09-16T04:32:32.971Z,10.00
2022-09-16T04:33:32.980Z,10.60
2022-09-16T04:34:32.961Z,6.70
2022-09-16T04:35:32.960Z,7.90
2022-09-16T04:36:32.983Z,8.00
2022-09-16T04:37:32.943Z,6.70
2022-09-16T04:38:32.935Z,10.90
2022-09-16T04:39:32.958Z,8.90
2022-09-16T04:40:32.953Z,9.60
2022-09-16T04:41:32.910Z,9.00
2022-09-16T04:42:32.907Z,8.70
2022-09-16T04:43:32.894Z,8.90
2022-09-16T04:44:32.919Z,10.00
2022-09-16T04:45:32.895Z,10.00
2022-09-16T04:46:32.926Z,11.10
2022-09-16T04:47:32.895Z,9.80
2022-09-16T04:48:32.862Z,8.50
2022-09-16T04:49:32.886Z,10.40
2022-09-16T04:50:32.910Z,8.30
2022-09-16T04:51:33.878Z,9.50
2022-09-16T04:52:32.834Z,8.40
2022-09-16T04:53:32.886Z,9.30
2022-09-16T04:54:34.951Z,7.20
2022-09-16T04:55:32.862Z,11.00
2022-09-16T04:56:32.830Z,10.40
2022-09-16T04:57:32.838Z,10.20
2022-09-16T04:58:32.826Z,10.60
2022-09-16T04:59:32.859Z,9.50
2022-09-16T05:00:32.778Z,8.60
2022-09-16T05:01:32.865Z,8.90
2022-09-16T05:02:32.777Z,9.60
2022-09-16T05:03:32.819Z,10.80
2022-09-16T05:04:32.758Z,10.30
2022-09-16T05:05:32.791Z,10.60
2022-09-16T05:06:32.775Z,10.90
2022-09-16T05:07:32.762Z,8.60
2022-09-16T05:08:32.722Z,10.00
2022-09-16T05:09:32.947Z,9.20
2022-09-16T05:10:32.734Z,10.80
2022-09-16T05:11:32.721Z,9.90
2022-09-16T05:12:32.748Z,10.20
2022-09-16T05:13:32.713Z,9.50
2022-09-16T05:14:32.702Z,13.30
2022-09-16T05:15:32.824Z,8.50
2022-09-16T05:16:32.722Z,8.70
2022-09-16T05:17:50.477Z,8.70
2022-09-16T05:18:34.713Z,11.70
2022-09-16T05:19:32.673Z,9.00
2022-09-16T05:20:32.686Z,9.80
2022-09-16T05:21:32.687Z,10.50
2022-09-16T05:22:32.638Z,13.50
2022-09-16T05:23:32.636Z,8.90
2022-09-16T05:24:32.661Z,10.10
2022-09-16T05:25:32.640Z,11.20
2022-09-16T05:26:32.638Z,10.60
2022-09-16T05:27:32.648Z,9.40
2022-09-16T05:28:32.648Z,11.50
2022-09-16T05:29:32.612Z,9.80
2022-09-16T05:30:32.693Z,14.30
2022-09-16T05:31:32.733Z,10.00
2022-09-16T05:32:32.589Z,8.20
2022-09-16T05:33:32.587Z,9.90
2022-09-16T05:34:32.626Z,12.40
2022-09-16T05:35:32.578Z,10.20
2022-09-16T05:36:32.596Z,10.10
2022-09-16T05:37:32.587Z,12.10
2022-09-16T05:38:33.238Z,10.00
2022-09-16T05:39:32.596Z,10.70
2022-09-16T05:40:32.624Z,14.10
2022-09-16T05:41:32.552Z,9.40
2022-09-16T05:42:32.583Z,8.70
2022-09-16T05:43:32.513Z,12.50
2022-09-16T05:44:32.513Z,12.50
2022-09-16T05:45:32.767Z,12.80
2022-09-16T05:46:33.326Z,11.70
2022-09-16T05:47:32.616Z,9.30
2022-09-16T05:48:32.509Z,12.90
2022-09-16T05:49:32.518Z,10.20
2022-09-16T05:50:32.464Z,11.20
2022-09-16T05:51:32.459Z,10.30
2022-09-16T05:52:32.480Z,9.80
2022-09-16T05:53:32.464Z,8.40
2022-09-16T05:54:32.455Z,11.70
2022-09-16T05:55:32.467Z,9.40
2022-09-16T05:56:32.439Z,10.40
2022-09-16T05:57:32.439Z,11.30
2022-09-16T05:58:32.482Z,8.90
2022-09-16T05:59:32.447Z,9.70
2022-09-16T06:00:32.417Z,11.40
2022-09-16T06:01:32.504Z,11.10
2022-09-16T06:02:32.412Z,8.90
2022-09-16T06:03:32.490Z,9.60
2022-09-16T06:04:32.401Z,10.40
2022-09-16T06:05:32.369Z,8.80
2022-09-16T06:06:32.375Z,10.60
2022-09-16T06:07:32.364Z,12.30
2022-09-16T06:08:32.345Z,8.00
2022-09-16T06:09:32.390Z,8.90
2022-09-16T06:10:32.346Z,9.60
2022-09-16T06:11:32.318Z,10.00
2022-09-16T06:12:32.333Z,13.70
2022-09-16T06:13:32.334Z,11.70
2022-09-16T06:14:32.318Z,8.20
2022-09-16T06:15:32.354Z,11.20
2022-09-16T06:16:32.320Z,11.00
2022-09-16T06:17:33.239Z,8.70
2022-09-16T06:18:33.195Z,10.00
2022-09-16T06:19:32.421Z,8.70
2022-09-16T06:20:32.252Z,11.40
2022-09-16T06:21:32.293Z,11.60
2022-09-16T06:22:32.297Z,8.60
2022-09-16T06:23:32.243Z,12.60
2022-09-16T06:24:32.251Z,11.70
2022-09-16T06:25:32.223Z,9.50
2022-09-16T06:26:32.231Z,8.30
2022-09-16T06:27:32.290Z,8.10
2022-09-16T06:28:32.206Z,9.30
2022-09-16T06:29:32.206Z,8.80
2022-09-16T06:30:32.286Z,8.40
2022-09-16T06:31:33.198Z,10.10
2022-09-16T06:32:32.321Z,8.70
2022-09-16T06:33:32.181Z,7.80
2022-09-16T06:34:32.192Z,8.70
2022-09-16T06:35:32.259Z,8.60
2022-09-16T06:36:32.156Z,9.70
2022-09-16T06:37:32.177Z,8.40
2022-09-16T06:38:32.162Z,7.50
2022-09-16T06:39:32.137Z,8.50
2022-09-16T06:40:32.190Z,8.40
2022-09-16T06:41:32.132Z,9.00
2022-09-16T06:42:32.140Z,8.50
2022-09-16T06:43:32.120Z,8.90
2022-09-16T06:44:32.151Z,9.70
2022-09-16T06:45:32.104Z,8.80
2022-09-16T06:46:32.083Z,8.80
2022-09-16T06:47:32.090Z,6.50
2022-09-16T06:48:32.103Z,7.80
2022-09-16T06:49:32.076Z,10.20
2022-09-16T06:50:32.062Z,8.40
2022-09-16T06:51:32.157Z,9.30
2022-09-16T06:52:32.050Z,7.60
2022-09-16T06:53:32.034Z,8.80
2022-09-16T06:54:32.062Z,6.30
2022-09-16T06:55:32.024Z,7.90
2022-09-16T06:56:32.025Z,7.90
2022-09-16T06:57:32.041Z,8.80
2022-09-16T06:58:32.007Z,10.20
2022-09-16T06:59:33.062Z,7.20
2022-09-16T07:00:32.078Z,9.50
2022-09-16T07:01:32.030Z,9.50
2022-09-16T07:02:32.017Z,10.40
2022-09-16T07:03:32.013Z,8.50
2022-09-16T07:04:31.979Z,8.50
2022-09-16T07:05:31.998Z,10.70
2022-09-16T07:07:34.047Z,9.40
2022-09-16T07:08:31.942Z,9.40
2022-09-16T07:09:31.953Z,8.80
2022-09-16T07:10:31.954Z,9.00
2022-09-16T07:11:31.912Z,7.10
2022-09-16T07:12:31.993Z,9.00
2022-09-16T07:13:31.906Z,9.00
2022-09-16T07:14:31.902Z,8.30
2022-09-16T07:15:31.907Z,5.90
2022-09-16T07:16:32.004Z,7.70
2022-09-16T07:17:32.023Z,7.10
2022-09-16T07:18:31.869Z,8.10
2022-09-16T07:19:31.854Z,7.40
2022-09-16T07:20:31.886Z,7.00
2022-09-16T07:21:32.070Z,7.60
2022-09-16T07:22:32.859Z,7.80
2022-09-16T07:23:31.936Z,7.60
2022-09-16T07:24:31.913Z,5.90
2022-09-16T07:25:35.681Z,5.70
2022-09-16T07:26:32.838Z,9.50
2022-09-16T07:27:31.871Z,5.40
2022-09-16T07:28:31.815Z,6.60
2022-09-16T07:29:31.803Z,6.50
2022-09-16T07:30:31.903Z,4.40
2022-09-16T07:31:31.811Z,5.70
2022-09-16T07:32:31.843Z,5.10
2022-09-16T07:33:31.780Z,5.20
2022-09-16T07:34:31.763Z,5.80
2022-09-16T07:35:31.840Z,6.10
2022-09-16T07:36:31.768Z,6.30
2022-09-16T07:37:31.759Z,4.20
2022-09-16T07:38:31.740Z,4.80
2022-09-16T07:39:31.825Z,5.60
2022-09-16T07:40:36.587Z,4.90
2022-09-16T07:42:06.044Z,5.00
2022-09-16T07:42:32.274Z,5.50
2022-09-16T07:43:31.711Z,4.90
2022-09-16T07:44:31.700Z,4.70
2022-09-16T07:45:31.724Z,5.10
2022-09-16T07:46:31.678Z,5.50
2022-09-16T07:47:31.694Z,4.80
2022-09-16T07:48:34.942Z,5.20
2022-09-16T07:49:32.667Z,4.60
2022-09-16T07:50:31.658Z,4.90
2022-09-16T07:51:31.674Z,6.70
2022-09-16T07:52:31.674Z,3.60
2022-09-16T07:53:31.675Z,7.90
2022-09-16T07:54:31.639Z,6.00
2022-09-16T07:55:31.717Z,6.00
2022-09-16T07:56:31.615Z,8.10
2022-09-16T07:57:31.623Z,56.10
2022-09-16T07:58:31.699Z,78.70
2022-09-16T07:59:31.641Z,65.80
2022-09-16T08:00:31.602Z,26.10
2022-09-16T08:01:31.741Z,19.30
2022-09-16T08:02:31.634Z,57.30
2022-09-16T08:03:31.588Z,41.10
2022-09-16T08:04:31.583Z,35.90
2022-09-16T08:05:31.566Z,8.20
2022-09-16T08:06:31.647Z,37.20
2022-09-16T08:07:31.555Z,20.00
2022-09-16T08:08:31.595Z,8.10
2022-09-16T08:09:39.793Z,13.40
2022-09-16T08:10:33.528Z,5.30
2022-09-16T08:11:31.629Z,6.80
2022-09-16T08:12:31.534Z,4.40
2022-09-16T08:13:31.595Z,10.60
2022-09-16T08:14:31.529Z,10.10
2022-09-16T08:15:31.515Z,14.40
2022-09-16T08:16:32.543Z,8.10
2022-09-16T08:17:33.512Z,8.60
2022-09-16T08:18:31.490Z,8.20
2022-09-16T08:19:31.553Z,8.20
2022-09-16T08:20:31.502Z,3.80
2022-09-16T08:21:31.463Z,7.70
2022-09-16T08:22:31.469Z,7.40
2022-09-16T08:23:31.462Z,6.10
2022-09-16T08:24:31.470Z,7.60
2022-09-16T08:25:31.466Z,7.30
2022-09-16T08:26:31.442Z,6.70
2022-09-16T08:27:31.543Z,5.80
2022-09-16T08:28:40.022Z,6.10
2022-09-16T08:29:33.423Z,5.50
2022-09-16T08:30:31.496Z,4.90
2022-09-16T08:31:31.451Z,7.10
2022-09-16T08:32:31.398Z,12.30
2022-09-16T08:33:31.406Z,11.20
2022-09-16T08:34:31.393Z,12.60
2022-09-16T08:35:31.450Z,7.80
2022-09-16T08:36:31.369Z,7.60
2022-09-16T08:37:31.403Z,11.00
2022-09-16T08:38:31.363Z,6.30
2022-09-16T08:39:31.357Z,3.50
2022-09-16T08:40:31.354Z,3.30
2022-09-16T08:41:31.325Z,4.20
2022-09-16T08:42:31.321Z,6.70
2022-09-16T08:43:31.457Z,5.20
2022-09-16T08:44:31.330Z,5.30
2022-09-16T08:45:31.419Z,4.90
2022-09-16T08:46:31.418Z,2.90
2022-09-16T08:47:31.287Z,4.10
2022-09-16T08:48:31.301Z,5.30
2022-09-16T08:49:31.278Z,2.90
2022-09-16T08:50:31.270Z,2.10
2022-09-16T08:51:31.279Z,4.50
2022-09-16T08:52:31.257Z,4.50
2022-09-16T08:53:31.282Z,2.80
2022-09-16T08:54:31.254Z,3.00
2022-09-16T08:55:31.258Z,2.20
2022-09-16T08:56:31.250Z,3.40
2022-09-16T08:57:31.242Z,2.60
2022-09-16T08:58:31.223Z,4.00
2022-09-16T08:59:31.353Z,5.20
2022-09-16T09:00:31.206Z,2.70
2022-09-16T09:01:31.622Z,3.10
2022-09-16T09:02:31.702Z,2.50
2022-09-16T09:03:31.198Z,2.90
2022-09-16T09:04:31.210Z,2.50
2022-09-16T09:05:31.178Z,3.40
2022-09-16T09:06:31.186Z,2.80
2022-09-16T09:07:31.186Z,3.90
2022-09-16T09:08:31.158Z,3.00
2022-09-16T09:09:31.157Z,4.30
2022-09-16T09:10:31.164Z,3.00
2022-09-16T09:11:31.754Z,4.80
2022-09-16T09:12:32.372Z,3.30
2022-09-16T09:13:31.146Z,4.20
2022-09-16T09:14:31.140Z,3.20
2022-09-16T09:15:31.220Z,4.50
2022-09-16T09:16:31.255Z,4.50
2022-09-16T09:17:31.097Z,4.00
2022-09-16T09:18:31.121Z,2.10
2022-09-16T09:19:31.091Z,3.20
2022-09-16T09:20:31.090Z,5.10
2022-09-16T09:21:31.083Z,3.60
2022-09-16T09:22:31.074Z,2.40
2022-09-16T09:23:31.099Z,3.60
2022-09-16T09:24:31.067Z,4.90
2022-09-16T09:25:31.073Z,3.60
2022-09-16T09:26:31.037Z,2.80
2022-09-16T09:27:31.038Z,3.00
2022-09-16T09:28:31.029Z,3.60
2022-09-16T09:29:31.034Z,3.40
2022-09-16T09:30:31.050Z,3.10
2022-09-16T09:31:31.288Z,2.70
2022-09-16T09:32:38.342Z,3.40
2022-09-16T09:33:46.243Z,3.30
2022-09-16T09:34:35.880Z,3.80
2022-09-16T09:35:32.010Z,3.70
2022-09-16T09:36:30.988Z,2.70
2022-09-16T09:37:30.982Z,4.40
2022-09-16T09:38:31.014Z,3.80
2022-09-16T09:39:30.972Z,6.30
2022-09-16T09:40:31.039Z,2.80
2022-09-16T09:41:30.994Z,4.80
2022-09-16T09:42:30.950Z,3.90
2022-09-16T09:43:30.987Z,1.80
2022-09-16T09:44:30.969Z,2.00
2022-09-16T09:45:30.963Z,3.60
2022-09-16T09:46:30.962Z,2.20
2022-09-16T09:47:31.032Z,2.80
2022-09-16T09:48:30.926Z,2.80
2022-09-16T09:49:30.893Z,3.10
2022-09-16T09:50:30.905Z,2.50
2022-09-16T09:51:31.814Z,2.20
2022-09-16T09:52:30.887Z,2.80
2022-09-16T09:53:30.888Z,3.40
2022-09-16T09:54:30.861Z,5.30
2022-09-16T09:55:30.848Z,2.10
2022-09-16T09:56:30.887Z,2.10
2022-09-16T09:57:30.848Z,2.60
2022-09-16T09:58:30.883Z,2.80
2022-09-16T09:59:30.838Z,2.80
2022-09-16T10:00:30.823Z,2.30
2022-09-16T10:01:30.828Z,2.20
2022-09-16T10:02:30.863Z,1.80
2022-09-16T10:03:30.924Z,2.20
2022-09-16T10:04:30.813Z,1.20
2022-09-16T10:05:30.798Z,2.80
2022-09-16T10:06:30.791Z,1.30
2022-09-16T10:07:31.322Z,2.90
2022-09-16T10:08:30.777Z,1.70
2022-09-16T10:09:30.772Z,3.30
2022-09-16T10:10:31.804Z,3.80
2022-09-16T10:11:30.852Z,1.90
2022-09-16T10:12:30.742Z,1.60
2022-09-16T10:13:30.766Z,1.50
2022-09-16T10:14:30.839Z,2.10
2022-09-16T10:15:30.717Z,1.50
2022-09-16T10:16:30.807Z,1.90
2022-09-16T10:17:31.722Z,2.50
2022-09-16T10:18:30.695Z,1.40
2022-09-16T10:19:30.831Z,1.30
2022-09-16T10:20:30.687Z,2.00
2022-09-16T10:21:30.754Z,2.10
2022-09-16T10:22:30.698Z,3.40
2022-09-16T10:23:30.771Z,2.90
2022-09-16T10:24:30.810Z,1.90
2022-09-16T10:25:30.668Z,3.30
2022-09-16T10:26:30.662Z,2.90
2022-09-16T10:27:30.671Z,1.80
2022-09-16T10:28:30.658Z,3.20
2022-09-16T10:29:32.235Z,2.90
2022-09-16T10:30:31.612Z,1.30
2022-09-16T10:31:33.686Z,2.90
2022-09-16T10:32:30.604Z,1.60
2022-09-16T10:33:30.583Z,1.80
2022-09-16T10:34:30.686Z,0.90
2022-09-16T10:35:30.709Z,2.00
2022-09-16T10:36:30.574Z,1.80
2022-09-16T10:37:30.568Z,2.20
2022-09-16T10:38:30.585Z,1.70
2022-09-16T10:39:30.566Z,1.80
2022-09-16T10:40:30.644Z,4.00
2022-09-16T10:41:30.548Z,4.10
2022-09-16T10:42:30.548Z,4.00
2022-09-16T10:43:30.537Z,3.30
2022-09-16T10:44:30.592Z,2.40
2022-09-16T10:45:30.547Z,3.90
2022-09-16T10:46:30.606Z,2.70
2022-09-16T10:47:30.543Z,1.80
2022-09-16T10:48:30.499Z,2.90
2022-09-16T10:49:30.498Z,3.70
2022-09-16T10:50:30.524Z,2.10
2022-09-16T10:51:30.584Z,2.70
2022-09-16T10:52:30.492Z,1.40
2022-09-16T10:53:30.633Z,2.30
2022-09-16T10:54:30.551Z,2.40
2022-09-16T10:55:30.508Z,1.90
2022-09-16T10:56:30.479Z,3.30
2022-09-16T10:57:30.449Z,1.70
2022-09-16T10:58:30.440Z,3.20
2022-09-16T10:59:30.433Z,2.40
2022-09-16T11:00:30.500Z,2.30
2022-09-16T11:01:31.319Z,2.40
2022-09-16T11:02:31.289Z,1.60
2022-09-16T11:03:30.447Z,4.90
2022-09-16T11:04:30.408Z,2.50
2022-09-16T11:05:30.381Z,3.90
2022-09-16T11:06:30.385Z,4.20
2022-09-16T11:07:30.730Z,2.50
2022-09-16T11:08:30.643Z,2.60
2022-09-16T11:09:30.389Z,4.40
2022-09-16T11:10:30.380Z,3.50
2022-09-16T11:12:30.383Z,3.20
2022-09-16T11:13:30.355Z,5.30
2022-09-16T11:14:30.414Z,2.40
2022-09-16T11:15:30.318Z,4.20
2022-09-16T11:16:30.336Z,5.40
2022-09-16T11:17:30.313Z,2.10
2022-09-16T11:18:30.290Z,3.80
2022-09-16T11:19:31.306Z,4.00
2022-09-16T11:20:30.301Z,3.00
2022-09-16T11:21:30.479Z,2.40
2022-09-16T11:22:30.262Z,2.20
2022-09-16T11:23:30.368Z,1.30
2022-09-16T11:24:30.270Z,2.40
2022-09-16T11:25:30.257Z,1.50
2022-09-16T11:26:30.274Z,4.40
2022-09-16T11:27:30.350Z,1.90
2022-09-16T11:28:30.230Z,2.20
2022-09-16T11:29:30.213Z,1.60
2022-09-16T11:30:30.237Z,1.40
2022-09-16T11:31:30.297Z,2.50
2022-09-16T11:32:30.240Z,1.50
2022-09-16T11:33:30.204Z,5.10
2022-09-16T11:34:30.182Z,5.40
2022-09-16T11:35:30.177Z,3.50
2022-09-16T11:36:30.191Z,1.90
2022-09-16T11:37:30.146Z,3.00
2022-09-16T11:38:30.160Z,3.10
2022-09-16T11:39:30.267Z,4.10
2022-09-16T11:40:30.200Z,2.40
2022-09-16T11:41:30.133Z,3.30
2022-09-16T11:42:30.166Z,3.00
2022-09-16T11:43:30.131Z,3.70
2022-09-16T11:44:30.105Z,2.30
2022-09-16T11:45:30.104Z,4.20
2022-09-16T11:46:30.184Z,1.70
2022-09-16T11:47:30.132Z,2.30
2022-09-16T11:48:30.129Z,1.80
2022-09-16T11:49:30.085Z,3.80
2022-09-16T11:50:30.064Z,1.80
2022-09-16T11:51:30.060Z,2.40
2022-09-16T11:52:30.488Z,2.60
2022-09-16T11:53:33.449Z,2.20
2022-09-16T11:54:31.031Z,2.40
2022-09-16T11:55:30.164Z,4.30
2022-09-16T11:56:30.022Z,2.90
2022-09-16T11:57:30.031Z,2.80
2022-09-16T11:58:30.055Z,2.50
2022-09-16T11:59:29.999Z,2.10
2022-09-16T12:00:29.989Z,1.80
2022-09-16T12:01:30.112Z,3.30
2022-09-16T12:02:30.063Z,3.20
2022-09-16T12:03:30.104Z,1.10
2022-09-16T12:04:30.049Z,2.90
2022-09-16T12:05:29.957Z,2.10
2022-09-16T12:06:29.964Z,2.50
2022-09-16T12:07:29.953Z,1.10
2022-09-16T12:08:30.042Z,1.40
2022-09-16T12:09:29.958Z,2.40
2022-09-16T12:10:29.990Z,2.40
2022-09-16T12:11:30.047Z,2.50
2022-09-16T12:12:29.933Z,2.20
2022-09-16T12:13:29.910Z,2.40
2022-09-16T12:14:29.932Z,3.40
2022-09-16T12:15:29.938Z,1.90
2022-09-16T12:16:32.508Z,1.90
2022-09-16T12:17:29.888Z,2.60
2022-09-16T12:18:29.881Z,2.00
2022-09-16T12:19:29.890Z,2.80
2022-09-16T12:20:29.861Z,3.90
2022-09-16T12:21:29.896Z,3.10
2022-09-16T12:22:29.832Z,2.10
2022-09-16T12:23:30.886Z,1.90
2022-09-16T12:24:29.865Z,1.40
2022-09-16T12:25:29.849Z,2.80
2022-09-16T12:26:29.826Z,3.10
2022-09-16T12:27:29.953Z,3.40
2022-09-16T12:28:29.802Z,4.10
2022-09-16T12:29:29.811Z,1.60
2022-09-16T12:30:29.854Z,1.30
2022-09-16T12:31:29.860Z,2.00
2022-09-16T12:32:29.838Z,3.10
2022-09-16T12:33:29.783Z,4.90
2022-09-16T12:34:29.783Z,4.20
2022-09-16T12:36:29.799Z,2.00
2022-09-16T12:37:29.794Z,1.80
2022-09-16T12:38:29.749Z,2.70
2022-09-16T12:39:29.742Z,2.80
2022-09-16T12:40:29.802Z,2.40
2022-09-16T12:41:29.744Z,3.50
2022-09-16T12:42:29.714Z,1.70
2022-09-16T12:43:29.831Z,3.90
2022-09-16T12:44:34.467Z,2.10
2022-09-16T12:45:31.719Z,1.90
2022-09-16T12:46:29.758Z,2.80
2022-09-16T12:47:29.706Z,2.70
2022-09-16T12:48:29.702Z,3.10
2022-09-16T12:49:29.774Z,3.10
2022-09-16T12:50:29.690Z,2.80
2022-09-16T12:51:29.657Z,1.90
2022-09-16T12:52:29.739Z,1.90
2022-09-16T12:53:29.673Z,2.30
2022-09-16T12:54:32.095Z,3.70
2022-09-16T12:55:30.648Z,3.10
2022-09-16T12:56:29.666Z,2.60
2022-09-16T12:57:29.637Z,3.20
2022-09-16T12:58:29.632Z,3.10
2022-09-16T12:59:29.745Z,2.60
2022-09-16T13:00:29.640Z,2.90
2022-09-16T13:01:29.745Z,4.00
2022-09-16T13:02:29.729Z,2.20
2022-09-16T13:03:29.696Z,2.80
2022-09-16T13:04:29.608Z,1.50
2022-09-16T13:05:32.555Z,3.90
2022-09-16T13:06:29.625Z,3.50
2022-09-16T13:07:29.577Z,3.10
2022-09-16T13:08:29.586Z,3.10
2022-09-16T13:09:29.577Z,4.30
2022-09-16T13:10:46.879Z,2.20
2022-09-16T13:12:40.878Z,3.40
2022-09-16T13:13:31.538Z,2.30
2022-09-16T13:14:29.571Z,2.90
2022-09-16T13:15:29.711Z,3.20
2022-09-16T13:16:29.510Z,5.40
2022-09-16T13:17:29.551Z,6.50
2022-09-16T13:18:29.514Z,4.00
2022-09-16T13:19:29.506Z,2.20
2022-09-16T13:20:29.516Z,4.20